sensor_id;sensor_type;location;lat;lon;timestamp;pressure;altitude;pressure_sealevel;temperature;humidity
58534;BME280;44109;52.398;7.024;2023-03-13T00:01:14;100041.88;;;9.66;100.00
58534;BME280;44109;52.398;7.024;2023-03-13T00:03:43;100042.19;;;9.54;100.00
58534;BME280;44109;52.398;7.024;2023-03-13T00:06:13;100036.28;;;9.59;100.00
58534;BME280;44109;52.398;7.024;2023-03-13T00:08:41;100030.59;;;9.45;100.00
58534;BME280;44109;52.398;7.024;2023-03-13T00:11:11;100029.16;;;9.58;100.00
58534;BME280;44109;52.398;7.024;2023-03-13T00:13:40;100019.59;;;9.52;100.00
58534;BME280;44109;52.398;7.024;2023-03-13T00:16:10;100014.38;;;9.43;100.00
58534;BME280;44109;52.398;7.024;2023-03-13T00:18:44;100006.81;;;9.36;100.00
58534;BME280;44109;52.398;7.024;2023-03-13T00:21:14;100005.38;;;9.50;100.00
58534;BME280;44109;52.398;7.024;2023-03-13T00:23:43;100005.19;;;9.35;100.00
58534;BME280;44109;52.398;7.024;2023-03-13T00:26:13;99995.28;;;9.31;100.00
58534;BME280;44109;52.398;7.024;2023-03-13T00:28:42;99999.19;;;9.26;100.00
58534;BME280;44109;52.398;7.024;2023-03-13T00:31:11;99990.53;;;9.28;100.00
58534;BME280;44109;52.398;7.024;2023-03-13T00:33:41;99976.34;;;9.33;100.00
58534;BME280;44109;52.398;7.024;2023-03-13T00:36:12;99985.38;;;9.30;100.00
58534;BME280;44109;52.398;7.024;2023-03-13T00:38:42;99977.72;;;9.12;100.00
58534;BME280;44109;52.398;7.024;2023-03-13T00:41:12;99970.22;;;9.13;100.00
58534;BME280;44109;52.398;7.024;2023-03-13T00:43:42;99974.28;;;9.26;100.00
58534;BME280;44109;52.398;7.024;2023-03-13T00:46:12;99973.44;;;9.19;100.00
58534;BME280;44109;52.398;7.024;2023-03-13T00:48:40;99942.38;;;8.95;100.00
58534;BME280;44109;52.398;7.024;2023-03-13T00:51:09;99948.09;;;9.13;100.00
58534;BME280;44109;52.398;7.024;2023-03-13T00:53:38;99945.34;;;9.17;100.00
58534;BME280;44109;52.398;7.024;2023-03-13T00:56:08;99940.22;;;9.19;100.00
58534;BME280;44109;52.398;7.024;2023-03-13T00:58:41;99932.75;;;9.23;100.00
58534;BME280;44109;52.398;7.024;2023-03-13T01:01:12;99908.09;;;9.07;100.00
58534;BME280;44109;52.398;7.024;2023-03-13T01:03:45;99919.97;;;9.07;100.00
58534;BME280;44109;52.398;7.024;2023-03-13T01:06:29;99905.53;;;9.28;100.00
58534;BME280;44109;52.398;7.024;2023-03-13T01:08:58;99904.72;;;9.28;100.00
58534;BME280;44109;52.398;7.024;2023-03-13T01:11:28;99889.66;;;9.22;100.00
58534;BME280;44109;52.398;7.024;2023-03-13T01:13:58;99891.25;;;9.26;100.00
58534;BME280;44109;52.398;7.024;2023-03-13T01:16:29;99886.19;;;9.35;100.00
58534;BME280;44109;52.398;7.024;2023-03-13T01:19:00;99875.09;;;9.28;100.00
58534;BME280;44109;52.398;7.024;2023-03-13T01:21:30;99872.34;;;9.35;100.00
58534;BME280;44109;52.398;7.024;2023-03-13T01:23:58;99861.34;;;9.43;100.00
58534;BME280;44109;52.398;7.024;2023-03-13T01:26:26;99840.34;;;9.38;100.00
58534;BME280;44109;52.398;7.024;2023-03-13T01:28:55;99844.69;;;9.35;100.00
58534;BME280;44109;52.398;7.024;2023-03-13T01:31:24;99830.53;;;9.48;100.00
58534;BME280;44109;52.398;7.024;2023-03-13T01:33:55;99836.47;;;9.46;100.00
58534;BME280;44109;52.398;7.024;2023-03-13T01:36:25;99829.75;;;9.51;100.00
58534;BME280;44109;52.398;7.024;2023-03-13T01:38:56;99826.22;;;9.54;100.00
58534;BME280;44109;52.398;7.024;2023-03-13T01:41:25;99829.34;;;9.49;100.00
58534;BME280;44109;52.398;7.024;2023-03-13T01:43:55;99788.09;;;9.29;100.00
58534;BME280;44109;52.398;7.024;2023-03-13T01:46:24;99806.66;;;9.25;100.00
58534;BME280;44109;52.398;7.024;2023-03-13T01:48:56;99796.13;;;9.45;100.00
58534;BME280;44109;52.398;7.024;2023-03-13T01:51:32;99787.47;;;9.54;100.00
58534;BME280;44109;52.398;7.024;2023-03-13T01:54:08;99772.81;;;9.53;100.00
58534;BME280;44109;52.398;7.024;2023-03-13T01:56:40;99768.53;;;9.63;100.00
58534;BME280;44109;52.398;7.024;2023-03-13T01:59:14;99756.63;;;9.62;100.00
58534;BME280;44109;52.398;7.024;2023-03-13T02:01:46;99748.38;;;9.70;100.00
58534;BME280;44109;52.398;7.024;2023-03-13T02:04:18;99734.88;;;9.61;100.00
58534;BME280;44109;52.398;7.024;2023-03-13T02:06:51;99723.34;;;9.48;100.00
58534;BME280;44109;52.398;7.024;2023-03-13T02:09:27;99724.94;;;9.49;100.00
58534;BME280;44109;52.398;7.024;2023-03-13T02:12:02;99703.84;;;9.20;100.00
58534;BME280;44109;52.398;7.024;2023-03-13T02:14:34;99707.53;;;9.49;100.00
58534;BME280;44109;52.398;7.024;2023-03-13T02:17:06;99704.78;;;9.49;100.00
58534;BME280;44109;52.398;7.024;2023-03-13T02:19:37;99698.91;;;9.64;100.00
58534;BME280;44109;52.398;7.024;2023-03-13T02:22:15;99695.22;;;9.32;100.00
58534;BME280;44109;52.398;7.024;2023-03-13T02:24:55;99689.69;;;9.32;100.00
58534;BME280;44109;52.398;7.024;2023-03-13T02:27:35;99692.78;;;9.20;100.00
58534;BME280;44109;52.398;7.024;2023-03-13T02:30:04;99690.41;;;9.18;100.00
58534;BME280;44109;52.398;7.024;2023-03-13T02:32:33;99668.25;;;9.11;100.00
58534;BME280;44109;52.398;7.024;2023-03-13T02:35:03;99663.56;;;9.22;100.00
58534;BME280;44109;52.398;7.024;2023-03-13T02:37:35;99642.94;;;9.05;100.00
58534;BME280;44109;52.398;7.024;2023-03-13T02:40:06;99645.41;;;9.35;100.00
58534;BME280;44109;52.398;7.024;2023-03-13T02:42:41;99642.97;;;9.16;100.00
58534;BME280;44109;52.398;7.024;2023-03-13T02:45:13;99640.59;;;9.22;100.00
58534;BME280;44109;52.398;7.024;2023-03-13T02:47:42;99620.06;;;9.19;100.00
58534;BME280;44109;52.398;7.024;2023-03-13T02:50:11;99597.94;;;9.26;100.00
58534;BME280;44109;52.398;7.024;2023-03-13T02:52:42;99619.34;;;9.36;100.00
58534;BME280;44109;52.398;7.024;2023-03-13T02:55:14;99599.53;;;9.31;100.00
58534;BME280;44109;52.398;7.024;2023-03-13T02:57:49;99593.25;;;9.45;100.00
58534;BME280;44109;52.398;7.024;2023-03-13T03:00:17;99584.53;;;9.39;100.00
58534;BME280;44109;52.398;7.024;2023-03-13T03:02:45;99590.06;;;9.35;100.00
58534;BME280;44109;52.398;7.024;2023-03-13T03:05:13;99579.84;;;9.54;100.00
58534;BME280;44109;52.398;7.024;2023-03-13T03:07:40;99565.59;;;9.55;100.00
58534;BME280;44109;52.398;7.024;2023-03-13T03:10:09;99566.38;;;9.49;100.00
58534;BME280;44109;52.398;7.024;2023-03-13T03:12:37;99556.50;;;9.51;100.00
58534;BME280;44109;52.398;7.024;2023-03-13T03:15:07;99540.28;;;9.50;100.00
58534;BME280;44109;52.398;7.024;2023-03-13T03:17:36;99544.25;;;9.70;100.00
58534;BME280;44109;52.398;7.024;2023-03-13T03:20:05;99503.13;;;9.54;100.00
58534;BME280;44109;52.398;7.024;2023-03-13T03:22:37;99534.38;;;9.80;100.00
58534;BME280;44109;52.398;7.024;2023-03-13T03:25:06;99524.84;;;9.66;100.00
58534;BME280;44109;52.398;7.024;2023-03-13T03:27:35;99500.34;;;9.83;100.00
58534;BME280;44109;52.398;7.024;2023-03-13T03:30:04;99517.34;;;9.74;100.00
58534;BME280;44109;52.398;7.024;2023-03-13T03:32:34;99531.22;;;9.63;100.00
58534;BME280;44109;52.398;7.024;2023-03-13T03:35:01;99530.81;;;9.72;100.00
58534;BME280;44109;52.398;7.024;2023-03-13T03:37:29;99524.47;;;9.82;100.00
58534;BME280;44109;52.398;7.024;2023-03-13T03:39:57;99507.47;;;9.73;100.00
58534;BME280;44109;52.398;7.024;2023-03-13T03:42:24;99511.00;;;9.81;100.00
58534;BME280;44109;52.398;7.024;2023-03-13T03:44:52;99508.66;;;9.86;100.00
58534;BME280;44109;52.398;7.024;2023-03-13T03:47:19;99514.97;;;9.83;100.00
58534;BME280;44109;52.398;7.024;2023-03-13T03:49:48;99524.09;;;9.87;100.00
58534;BME280;44109;52.398;7.024;2023-03-13T03:52:16;99513.38;;;9.89;100.00
58534;BME280;44109;52.398;7.024;2023-03-13T03:54:44;99513.38;;;9.97;100.00
58534;BME280;44109;52.398;7.024;2023-03-13T03:57:11;99505.47;;;10.02;100.00
58534;BME280;44109;52.398;7.024;2023-03-13T03:59:39;99507.06;;;10.00;100.00
58534;BME280;44109;52.398;7.024;2023-03-13T04:02:06;99499.94;;;9.95;100.00
58534;BME280;44109;52.398;7.024;2023-03-13T04:04:34;99485.69;;;9.89;100.00
58534;BME280;44109;52.398;7.024;2023-03-13T04:07:03;99503.09;;;10.01;100.00
58534;BME280;44109;52.398;7.024;2023-03-13T04:09:31;99492.00;;;10.08;100.00
58534;BME280;44109;52.398;7.024;2023-03-13T04:11:58;99484.09;;;10.10;100.00
58534;BME280;44109;52.398;7.024;2023-03-13T04:14:26;99482.50;;;10.02;100.00
58534;BME280;44109;52.398;7.024;2023-03-13T04:16:53;99490.41;;;10.07;100.00
58534;BME280;44109;52.398;7.024;2023-03-13T04:19:21;99476.19;;;10.08;100.00
58534;BME280;44109;52.398;7.024;2023-03-13T04:21:49;99465.06;;;10.19;100.00
58534;BME280;44109;52.398;7.024;2023-03-13T04:24:18;99471.41;;;10.16;100.00
58534;BME280;44109;52.398;7.024;2023-03-13T04:26:45;99469.81;;;10.15;100.00
58534;BME280;44109;52.398;7.024;2023-03-13T04:29:13;99480.13;;;10.14;100.00
58534;BME280;44109;52.398;7.024;2023-03-13T04:31:41;99459.56;;;10.05;100.00
58534;BME280;44109;52.398;7.024;2023-03-13T04:34:08;99474.16;;;10.23;100.00
58534;BME280;44109;52.398;7.024;2023-03-13T04:36:36;99461.88;;;10.21;100.00
58534;BME280;44109;52.398;7.024;2023-03-13T04:39:03;99466.25;;;10.25;100.00
58534;BME280;44109;52.398;7.024;2023-03-13T04:41:32;99451.19;;;10.26;100.00
58534;BME280;44109;52.398;7.024;2023-03-13T04:44:00;99451.19;;;10.26;100.00
58534;BME280;44109;52.398;7.024;2023-03-13T04:46:28;99446.44;;;10.34;100.00
58534;BME280;44109;52.398;7.024;2023-03-13T04:48:55;99445.25;;;10.35;100.00
58534;BME280;44109;52.398;7.024;2023-03-13T04:51:23;99439.69;;;10.35;100.00
58534;BME280;44109;52.398;7.024;2023-03-13T04:53:51;99429.38;;;10.43;100.00
58534;BME280;44109;52.398;7.024;2023-03-13T04:56:21;99421.41;;;10.52;100.00
58534;BME280;44109;52.398;7.024;2023-03-13T04:58:52;99426.97;;;10.48;100.00
58534;BME280;44109;52.398;7.024;2023-03-13T05:01:20;99438.88;;;10.45;100.00
58534;BME280;44109;52.398;7.024;2023-03-13T05:03:47;99416.31;;;10.43;100.00
58534;BME280;44109;52.398;7.024;2023-03-13T05:06:15;99371.59;;;10.30;100.00
58534;BME280;44109;52.398;7.024;2023-03-13T05:08:43;99411.16;;;10.41;100.00
58534;BME280;44109;52.398;7.024;2023-03-13T05:11:10;99411.13;;;10.49;100.00
58534;BME280;44109;52.398;7.024;2023-03-13T05:13:38;99419.00;;;10.61;100.00
58534;BME280;44109;52.398;7.024;2023-03-13T05:16:07;99420.19;;;10.56;100.00
58534;BME280;44109;52.398;7.024;2023-03-13T05:18:35;99419.78;;;10.61;100.00
58534;BME280;44109;52.398;7.024;2023-03-13T05:21:04;99418.13;;;10.75;100.00
58534;BME280;44109;52.398;7.024;2023-03-13T05:23:33;99410.59;;;10.72;100.00
58534;BME280;44109;52.398;7.024;2023-03-13T05:26:00;99393.94;;;10.75;100.00
58534;BME280;44109;52.398;7.024;2023-03-13T05:28:28;99400.69;;;10.78;100.00
58534;BME280;44109;52.398;7.024;2023-03-13T05:30:56;99380.44;;;10.81;100.00
58534;BME280;44109;52.398;7.024;2023-03-13T05:33:25;99390.38;;;10.78;100.00
58534;BME280;44109;52.398;7.024;2023-03-13T05:35:52;99383.19;;;10.84;100.00
58534;BME280;44109;52.398;7.024;2023-03-13T05:38:20;99391.09;;;10.89;100.00
58534;BME280;44109;52.398;7.024;2023-03-13T05:40:47;99391.84;;;10.93;100.00
58534;BME280;44109;52.398;7.024;2023-03-13T05:43:15;99395.03;;;10.96;100.00
58534;BME280;44109;52.398;7.024;2023-03-13T05:45:43;99379.16;;;10.96;100.00
58534;BME280;44109;52.398;7.024;2023-03-13T05:48:10;99365.66;;;10.98;100.00
58534;BME280;44109;52.398;7.024;2023-03-13T05:50:39;99375.97;;;10.98;100.00
58534;BME280;44109;52.398;7.024;2023-03-13T05:53:07;99379.91;;;11.04;100.00
58534;BME280;44109;52.398;7.024;2023-03-13T05:55:34;99364.81;;;11.08;100.00
58534;BME280;44109;52.398;7.024;2023-03-13T05:58:02;99383.06;;;11.06;100.00
58534;BME280;44109;52.398;7.024;2023-03-13T06:00:30;99370.81;;;11.00;100.00
58534;BME280;44109;52.398;7.024;2023-03-13T06:02:57;99375.41;;;11.17;100.00
58534;BME280;44109;52.398;7.024;2023-03-13T06:05:25;99375.84;;;11.15;100.00
58534;BME280;44109;52.398;7.024;2023-03-13T06:07:54;99380.25;;;11.13;100.00
58534;BME280;44109;52.398;7.024;2023-03-13T06:10:22;99378.97;;;11.21;100.00
58534;BME280;44109;52.398;7.024;2023-03-13T06:12:53;99373.03;;;11.19;100.00
58534;BME280;44109;52.398;7.024;2023-03-13T06:15:21;99384.06;;;11.26;100.00
58534;BME280;44109;52.398;7.024;2023-03-13T06:17:49;99380.47;;;11.33;100.00
58534;BME280;44109;52.398;7.024;2023-03-13T06:20:17;99368.56;;;11.32;100.00
58534;BME280;44109;52.398;7.024;2023-03-13T06:22:45;99389.22;;;11.31;100.00
58534;BME280;44109;52.398;7.024;2023-03-13T06:25:14;99382.75;;;11.41;100.00
58534;BME280;44109;52.398;7.024;2023-03-13T06:27:42;99378.06;;;11.35;100.00
58534;BME280;44109;52.398;7.024;2023-03-13T06:30:10;99374.81;;;11.43;100.00
58534;BME280;44109;52.398;7.024;2023-03-13T06:32:38;99372.78;;;11.48;100.00
58534;BME280;44109;52.398;7.024;2023-03-13T06:35:06;99384.22;;;11.53;100.00
58534;BME280;44109;52.398;7.024;2023-03-13T06:37:34;99375.41;;;11.65;100.00
58534;BME280;44109;52.398;7.024;2023-03-13T06:40:02;99377.06;;;11.59;100.00
58534;BME280;44109;52.398;7.024;2023-03-13T06:42:33;99370.75;;;11.55;100.00
58534;BME280;44109;52.398;7.024;2023-03-13T06:45:00;99376.28;;;11.55;100.00
58534;BME280;44109;52.398;7.024;2023-03-13T06:47:30;99382.22;;;11.57;100.00
58534;BME280;44109;52.398;7.024;2023-03-13T06:49:58;99369.88;;;11.62;100.00
58534;BME280;44109;52.398;7.024;2023-03-13T06:52:25;99363.91;;;11.63;100.00
58534;BME280;44109;52.398;7.024;2023-03-13T06:54:53;99373.03;;;11.64;100.00
58534;BME280;44109;52.398;7.024;2023-03-13T06:57:21;99351.72;;;11.54;100.00
58534;BME280;44109;52.398;7.024;2023-03-13T06:59:50;99369.84;;;11.65;100.00
58534;BME280;44109;52.398;7.024;2023-03-13T07:02:17;99371.84;;;11.65;100.00
58534;BME280;44109;52.398;7.024;2023-03-13T07:04:45;99365.81;;;11.70;100.00
58534;BME280;44109;52.398;7.024;2023-03-13T07:07:12;99346.72;;;11.76;100.00
58534;BME280;44109;52.398;7.024;2023-03-13T07:09:40;99339.47;;;11.85;100.00
58534;BME280;44109;52.398;7.024;2023-03-13T07:12:08;99342.69;;;11.80;100.00
58534;BME280;44109;52.398;7.024;2023-03-13T07:14:36;99340.19;;;11.93;100.00
58534;BME280;44109;52.398;7.024;2023-03-13T07:17:05;99337.75;;;11.99;100.00
58534;BME280;44109;52.398;7.024;2023-03-13T07:19:33;99333.03;;;11.96;100.00
58534;BME280;44109;52.398;7.024;2023-03-13T07:22:00;99309.31;;;11.87;100.00
58534;BME280;44109;52.398;7.024;2023-03-13T07:24:28;99326.34;;;11.89;100.00
58534;BME280;44109;52.398;7.024;2023-03-13T07:26:56;99315.19;;;11.93;100.00
58534;BME280;44109;52.398;7.024;2023-03-13T07:29:23;99312.31;;;12.04;100.00
58534;BME280;44109;52.398;7.024;2023-03-13T07:31:51;99319.44;;;12.05;100.00
58534;BME280;44109;52.398;7.024;2023-03-13T07:34:20;99311.88;;;12.05;100.00
58534;BME280;44109;52.398;7.024;2023-03-13T07:36:48;99315.78;;;12.08;100.00
58534;BME280;44109;52.398;7.024;2023-03-13T07:39:15;99315.44;;;12.06;100.00
58534;BME280;44109;52.398;7.024;2023-03-13T07:41:43;99308.59;;;12.14;100.00
58534;BME280;44109;52.398;7.024;2023-03-13T07:44:11;99317.41;;;12.09;100.00
58534;BME280;44109;52.398;7.024;2023-03-13T07:46:38;99323.16;;;12.22;100.00
58534;BME280;44109;52.398;7.024;2023-03-13T07:49:06;99314.91;;;12.18;100.00
58534;BME280;44109;52.398;7.024;2023-03-13T07:51:35;99304.97;;;12.17;100.00
58534;BME280;44109;52.398;7.024;2023-03-13T07:54:02;99313.50;;;12.33;100.00
58534;BME280;44109;52.398;7.024;2023-03-13T07:56:31;99311.53;;;12.30;100.00
58534;BME280;44109;52.398;7.024;2023-03-13T07:58:58;99301.59;;;12.33;100.00
58534;BME280;44109;52.398;7.024;2023-03-13T08:01:26;99299.38;;;12.48;100.00
58534;BME280;44109;52.398;7.024;2023-03-13T08:03:54;99308.50;;;12.48;100.00
58534;BME280;44109;52.398;7.024;2023-03-13T08:06:23;99279.91;;;12.48;100.00
58534;BME280;44109;52.398;7.024;2023-03-13T08:08:56;99292.81;;;12.61;100.00
58534;BME280;44109;52.398;7.024;2023-03-13T08:11:26;99293.13;;;12.67;100.00
58534;BME280;44109;52.398;7.024;2023-03-13T08:13:56;99277.66;;;12.66;100.00
58534;BME280;44109;52.398;7.024;2023-03-13T08:16:26;99304.59;;;12.73;100.00
58534;BME280;44109;52.398;7.024;2023-03-13T08:18:56;99317.09;;;12.84;100.00
58534;BME280;44109;52.398;7.024;2023-03-13T08:21:26;99278.94;;;12.85;100.00
58534;BME280;44109;52.398;7.024;2023-03-13T08:23:57;99301.34;;;13.01;100.00
58534;BME280;44109;52.398;7.024;2023-03-13T08:26:27;99300.19;;;12.99;100.00
58534;BME280;44109;52.398;7.024;2023-03-13T08:28:58;99312.28;;;12.88;100.00
58534;BME280;44109;52.398;7.024;2023-03-13T08:31:28;99294.25;;;12.97;100.00
58534;BME280;44109;52.398;7.024;2023-03-13T08:33:57;99316.63;;;12.89;100.00
58534;BME280;44109;52.398;7.024;2023-03-13T08:36:26;99298.84;;;13.07;100.00
58534;BME280;44109;52.398;7.024;2023-03-13T08:38:58;99300.50;;;13.04;100.00
58534;BME280;44109;52.398;7.024;2023-03-13T08:41:29;99314.97;;;12.95;100.00
58534;BME280;44109;52.398;7.024;2023-03-13T08:44:01;99314.31;;;12.84;100.00
58534;BME280;44109;52.398;7.024;2023-03-13T08:46:31;99300.03;;;12.59;100.00
58534;BME280;44109;52.398;7.024;2023-03-13T08:49:01;99319.16;;;12.80;100.00
58534;BME280;44109;52.398;7.024;2023-03-13T08:51:31;99318.88;;;12.98;100.00
58534;BME280;44109;52.398;7.024;2023-03-13T08:54:01;99308.75;;;12.84;100.00
58534;BME280;44109;52.398;7.024;2023-03-13T08:56:31;99340.16;;;12.85;100.00
58534;BME280;44109;52.398;7.024;2023-03-13T08:59:01;99330.75;;;13.02;100.00
58534;BME280;44109;52.398;7.024;2023-03-13T09:01:31;99322.00;;;13.27;100.00
58534;BME280;44109;52.398;7.024;2023-03-13T09:04:00;99311.31;;;12.99;100.00
58534;BME280;44109;52.398;7.024;2023-03-13T09:06:28;99318.09;;;12.98;100.00
58534;BME280;44109;52.398;7.024;2023-03-13T09:08:56;99316.63;;;12.89;100.00
58534;BME280;44109;52.398;7.024;2023-03-13T09:11:25;99309.78;;;12.94;100.00
58534;BME280;44109;52.398;7.024;2023-03-13T09:13:54;99307.50;;;13.12;100.00
58534;BME280;44109;52.398;7.024;2023-03-13T09:16:25;99309.81;;;13.17;100.00
58534;BME280;44109;52.398;7.024;2023-03-13T09:18:55;99303.53;;;13.13;100.00
58534;BME280;44109;52.398;7.024;2023-03-13T09:21:25;99308.59;;;13.22;100.00
58534;BME280;44109;52.398;7.024;2023-03-13T09:23:54;99312.16;;;13.23;100.00
58534;BME280;44109;52.398;7.024;2023-03-13T09:26:22;99299.38;;;13.21;100.00
58534;BME280;44109;52.398;7.024;2023-03-13T09:28:53;99292.69;;;13.42;100.00
58534;BME280;44109;52.398;7.024;2023-03-13T09:31:22;99295.19;;;13.37;100.00
58534;BME280;44109;52.398;7.024;2023-03-13T09:33:51;99283.91;;;13.44;100.00
58534;BME280;44109;52.398;7.024;2023-03-13T09:36:20;99289.06;;;13.65;100.00
58534;BME280;44109;52.398;7.024;2023-03-13T09:38:49;99300.88;;;13.73;100.00
58534;BME280;44109;52.398;7.024;2023-03-13T09:41:22;99301.94;;;13.79;100.00
58534;BME280;44109;52.398;7.024;2023-03-13T09:44:01;99305.38;;;13.87;100.00
58534;BME280;44109;52.398;7.024;2023-03-13T09:46:38;99286.63;;;14.07;100.00
58534;BME280;44109;52.398;7.024;2023-03-13T09:49:14;99306.44;;;14.13;100.00
58534;BME280;44109;52.398;7.024;2023-03-13T09:52:01;99298.56;;;14.08;100.00
58534;BME280;44109;52.398;7.024;2023-03-13T09:54:41;99292.72;;;14.22;100.00
58534;BME280;44109;52.398;7.024;2023-03-13T09:57:19;99289.63;;;14.16;100.00
58534;BME280;44109;52.398;7.024;2023-03-13T09:59:55;99292.34;;;14.20;100.00
58534;BME280;44109;52.398;7.024;2023-03-13T10:02:29;99258.72;;;14.27;100.00
58534;BME280;44109;52.398;7.024;2023-03-13T10:05:05;99254.78;;;14.25;100.00
58534;BME280;44109;52.398;7.024;2023-03-13T10:07:38;99255.88;;;14.47;100.00
58534;BME280;44109;52.398;7.024;2023-03-13T10:10:12;99239.94;;;14.80;100.00
58534;BME280;44109;52.398;7.024;2023-03-13T10:12:46;99236.00;;;14.94;100.00
58534;BME280;44109;52.398;7.024;2023-03-13T10:15:21;99254.00;;;14.77;100.00
58534;BME280;44109;52.398;7.024;2023-03-13T10:17:58;99223.22;;;14.64;100.00
58534;BME280;44109;52.398;7.024;2023-03-13T10:20:33;99243.78;;;14.70;100.00
58534;BME280;44109;52.398;7.024;2023-03-13T10:23:04;99236.63;;;14.53;100.00
58534;BME280;44109;52.398;7.024;2023-03-13T10:25:38;99243.53;;;14.81;100.00
58534;BME280;44109;52.398;7.024;2023-03-13T10:28:11;99229.09;;;14.98;100.00
58534;BME280;44109;52.398;7.024;2023-03-13T10:30:41;99246.91;;;15.05;100.00
58534;BME280;44109;52.398;7.024;2023-03-13T10:33:19;99249.34;;;15.03;100.00
58534;BME280;44109;52.398;7.024;2023-03-13T10:36:05;99239.84;;;15.00;100.00
58534;BME280;44109;52.398;7.024;2023-03-13T10:38:45;99232.09;;;14.91;100.00
58534;BME280;44109;52.398;7.024;2023-03-13T10:41:24;99235.06;;;15.01;100.00
58534;BME280;44109;52.398;7.024;2023-03-13T10:44:00;99228.16;;;15.05;100.00
58534;BME280;44109;52.398;7.024;2023-03-13T10:46:32;99216.53;;;15.07;100.00
58534;BME280;44109;52.398;7.024;2023-03-13T10:49:02;99213.81;;;15.19;100.00
58534;BME280;44109;52.398;7.024;2023-03-13T10:51:45;99209.88;;;15.17;100.00
58534;BME280;44109;52.398;7.024;2023-03-13T10:54:18;99203.47;;;15.04;100.00
58534;BME280;44109;52.398;7.024;2023-03-13T10:56:48;99212.63;;;15.33;100.00
58534;BME280;44109;52.398;7.024;2023-03-13T10:59:21;99213.03;;;15.77;100.00
58534;BME280;44109;52.398;7.024;2023-03-13T11:01:51;99205.66;;;15.83;100.00
58534;BME280;44109;52.398;7.024;2023-03-13T11:04:31;99195.34;;;15.67;100.00
58534;BME280;44109;52.398;7.024;2023-03-13T11:07:04;99211.28;;;16.09;100.00
58534;BME280;44109;52.398;7.024;2023-03-13T11:09:40;99186.78;;;16.00;100.00
58534;BME280;44109;52.398;7.024;2023-03-13T11:12:13;99182.59;;;15.79;100.00
58534;BME280;44109;52.398;7.024;2023-03-13T11:14:47;99194.00;;;15.72;100.00
58534;BME280;44109;52.398;7.024;2023-03-13T11:17:29;99170.56;;;15.53;100.00
58534;BME280;44109;52.398;7.024;2023-03-13T11:20:21;99174.53;;;15.68;100.00
58534;BME280;44109;52.398;7.024;2023-03-13T11:23:04;99162.59;;;15.81;100.00
58534;BME280;44109;52.398;7.024;2023-03-13T11:25:47;99162.28;;;15.91;100.00
58534;BME280;44109;52.398;7.024;2023-03-13T11:28:31;99171.22;;;16.12;100.00
58534;BME280;44109;52.398;7.024;2023-03-13T11:31:13;99183.19;;;16.12;100.00
58534;BME280;44109;52.398;7.024;2023-03-13T11:33:47;99168.00;;;16.26;100.00
58534;BME280;44109;52.398;7.024;2023-03-13T11:36:31;99167.28;;;16.35;100.00
58534;BME280;44109;52.398;7.024;2023-03-13T11:39:24;99151.31;;;16.10;100.00
58534;BME280;44109;52.398;7.024;2023-03-13T11:42:16;99179.28;;;16.10;100.00
58534;BME280;44109;52.398;7.024;2023-03-13T11:45:02;99160.47;;;16.23;100.00
58534;BME280;44109;52.398;7.024;2023-03-13T11:47:44;99158.47;;;16.23;100.00
58534;BME280;44109;52.398;7.024;2023-03-13T11:50:34;99156.91;;;16.10;96.97
58534;BME280;44109;52.398;7.024;2023-03-13T11:53:20;99163.06;;;16.17;94.65
58534;BME280;44109;52.398;7.024;2023-03-13T11:56:06;99142.91;;;16.35;93.76
58534;BME280;44109;52.398;7.024;2023-03-13T11:58:46;99131.44;;;16.55;93.74
58534;BME280;44109;52.398;7.024;2023-03-13T12:01:27;99147.09;;;16.65;93.07
58534;BME280;44109;52.398;7.024;2023-03-13T12:04:05;99135.97;;;16.40;92.04
58534;BME280;44109;52.398;7.024;2023-03-13T12:06:43;99134.78;;;16.63;92.39
58534;BME280;44109;52.398;7.024;2023-03-13T12:09:21;99123.72;;;16.72;90.64
58534;BME280;44109;52.398;7.024;2023-03-13T12:11:58;99113.38;;;16.69;91.05
58534;BME280;44109;52.398;7.024;2023-03-13T12:14:32;99110.91;;;16.71;92.91
58534;BME280;44109;52.398;7.024;2023-03-13T12:17:05;99114.84;;;16.61;91.21
58534;BME280;44109;52.398;7.024;2023-03-13T12:19:44;99102.75;;;16.77;87.94
58534;BME280;44109;52.398;7.024;2023-03-13T12:22:22;99104.00;;;16.63;89.01
58534;BME280;44109;52.398;7.024;2023-03-13T12:24:59;99092.66;;;16.66;87.47
58534;BME280;44109;52.398;7.024;2023-03-13T12:27:32;99084.19;;;16.92;89.11
58534;BME280;44109;52.398;7.024;2023-03-13T12:30:10;99099.25;;;16.85;89.31
58534;BME280;44109;52.398;7.024;2023-03-13T12:32:56;99092.06;;;16.84;90.48
58534;BME280;44109;52.398;7.024;2023-03-13T12:35:34;99078.22;;;16.68;87.96
58534;BME280;44109;52.398;7.024;2023-03-13T12:38:09;99083.72;;;16.93;90.96
58534;BME280;44109;52.398;7.024;2023-03-13T12:40:48;99088.56;;;17.15;89.04
58534;BME280;44109;52.398;7.024;2023-03-13T12:43:27;99085.81;;;17.24;88.45
58534;BME280;44109;52.398;7.024;2023-03-13T12:46:11;99073.59;;;17.09;88.94
58534;BME280;44109;52.398;7.024;2023-03-13T12:49:07;99081.25;;;16.73;89.83
58534;BME280;44109;52.398;7.024;2023-03-13T12:51:56;99068.56;;;17.04;90.02
58534;BME280;44109;52.398;7.024;2023-03-13T12:54:44;99055.91;;;17.21;86.97
58534;BME280;44109;52.398;7.024;2023-03-13T13:00:39;99055.91;;;17.21;82.03
58534;BME280;44109;52.398;7.024;2023-03-13T13:03:19;99049.78;;;17.35;83.13
58534;BME280;44109;52.398;7.024;2023-03-13T13:06:09;99036.63;;;17.23;80.59
58534;BME280;44109;52.398;7.024;2023-03-13T13:08:40;99048.25;;;17.43;80.85
58534;BME280;44109;52.398;7.024;2023-03-13T13:11:45;99035.94;;;17.72;80.03
58534;BME280;44109;52.398;7.024;2023-03-13T13:17:28;99025.81;;;17.74;75.67
58534;BME280;44109;52.398;7.024;2023-03-13T13:20:24;99035.84;;;17.94;76.32
58534;BME280;44109;52.398;7.024;2023-03-13T13:23:25;99024.84;;;17.68;76.41